sensor_id;sensor_type;location;lat;lon;timestamp;temperature;humidity
36660;DHT22;22654;51.054;3.654;2023-01-23T00:01:48;3.50;99.90
36660;DHT22;22654;51.054;3.654;2023-01-23T00:04:13;3.60;99.90
36660;DHT22;22654;51.054;3.654;2023-01-23T00:06:39;3.40;99.90
36660;DHT22;22654;51.054;3.654;2023-01-23T00:09:05;3.40;99.90
36660;DHT22;22654;51.054;3.654;2023-01-23T00:11:32;3.40;99.90
36660;DHT22;22654;51.054;3.654;2023-01-23T00:13:58;3.40;99.90
36660;DHT22;22654;51.054;3.654;2023-01-23T00:16:25;3.40;99.90
36660;DHT22;22654;51.054;3.654;2023-01-23T00:18:51;3.50;99.90
36660;DHT22;22654;51.054;3.654;2023-01-23T00:21:17;3.50;99.90
36660;DHT22;22654;51.054;3.654;2023-01-23T00:23:45;3.50;99.90
36660;DHT22;22654;51.054;3.654;2023-01-23T00:26:15;3.50;99.90
36660;DHT22;22654;51.054;3.654;2023-01-23T00:28:43;3.50;99.90
36660;DHT22;22654;51.054;3.654;2023-01-23T00:31:12;3.50;99.90
36660;DHT22;22654;51.054;3.654;2023-01-23T00:33:38;3.50;99.90
36660;DHT22;22654;51.054;3.654;2023-01-23T00:36:04;3.50;99.90
36660;DHT22;22654;51.054;3.654;2023-01-23T00:38:30;3.60;99.90
36660;DHT22;22654;51.054;3.654;2023-01-23T00:40:56;3.70;99.90
36660;DHT22;22654;51.054;3.654;2023-01-23T00:43:22;3.80;99.90
36660;DHT22;22654;51.054;3.654;2023-01-23T00:45:48;3.80;99.90
36660;DHT22;22654;51.054;3.654;2023-01-23T00:48:14;3.90;99.90
36660;DHT22;22654;51.054;3.654;2023-01-23T00:50:40;3.80;99.90
36660;DHT22;22654;51.054;3.654;2023-01-23T00:53:06;3.90;99.90
36660;DHT22;22654;51.054;3.654;2023-01-23T00:55:32;3.80;99.90
36660;DHT22;22654;51.054;3.654;2023-01-23T00:57:59;3.60;99.90
36660;DHT22;22654;51.054;3.654;2023-01-23T01:00:24;3.60;99.90
36660;DHT22;22654;51.054;3.654;2023-01-23T01:02:50;3.70;99.90
36660;DHT22;22654;51.054;3.654;2023-01-23T01:05:16;3.70;99.90
36660;DHT22;22654;51.054;3.654;2023-01-23T01:07:45;3.60;99.90
36660;DHT22;22654;51.054;3.654;2023-01-23T01:10:11;3.60;99.90
36660;DHT22;22654;51.054;3.654;2023-01-23T01:12:37;3.60;99.90
36660;DHT22;22654;51.054;3.654;2023-01-23T01:15:03;3.60;99.90
36660;DHT22;22654;51.054;3.654;2023-01-23T01:17:30;3.70;99.90
36660;DHT22;22654;51.054;3.654;2023-01-23T01:19:56;3.60;99.90
36660;DHT22;22654;51.054;3.654;2023-01-23T01:22:21;3.50;99.90
36660;DHT22;22654;51.054;3.654;2023-01-23T01:24:47;3.50;99.90
36660;DHT22;22654;51.054;3.654;2023-01-23T01:27:13;3.40;99.90
36660;DHT22;22654;51.054;3.654;2023-01-23T01:29:39;3.40;99.90
36660;DHT22;22654;51.054;3.654;2023-01-23T01:32:04;3.30;99.90
36660;DHT22;22654;51.054;3.654;2023-01-23T01:34:30;3.30;99.90
36660;DHT22;22654;51.054;3.654;2023-01-23T01:36:57;3.40;99.90
36660;DHT22;22654;51.054;3.654;2023-01-23T01:39:22;3.40;99.90
36660;DHT22;22654;51.054;3.654;2023-01-23T01:41:51;3.40;99.90
36660;DHT22;22654;51.054;3.654;2023-01-23T01:44:17;3.40;99.90
36660;DHT22;22654;51.054;3.654;2023-01-23T01:46:44;3.40;99.90
36660;DHT22;22654;51.054;3.654;2023-01-23T01:49:14;3.40;99.90
36660;DHT22;22654;51.054;3.654;2023-01-23T01:54:30;3.20;99.90
36660;DHT22;22654;51.054;3.654;2023-01-23T01:56:56;3.10;99.90
36660;DHT22;22654;51.054;3.654;2023-01-23T01:59:23;2.90;99.90
36660;DHT22;22654;51.054;3.654;2023-01-23T02:01:52;2.80;99.90
36660;DHT22;22654;51.054;3.654;2023-01-23T02:04:18;2.60;99.90
36660;DHT22;22654;51.054;3.654;2023-01-23T02:06:45;2.50;99.90
36660;DHT22;22654;51.054;3.654;2023-01-23T02:09:20;2.50;99.90
36660;DHT22;22654;51.054;3.654;2023-01-23T02:11:48;2.40;99.90
36660;DHT22;22654;51.054;3.654;2023-01-23T02:14:17;2.40;99.90
36660;DHT22;22654;51.054;3.654;2023-01-23T02:16:43;2.40;99.90
36660;DHT22;22654;51.054;3.654;2023-01-23T02:19:18;2.40;99.90
36660;DHT22;22654;51.054;3.654;2023-01-23T02:21:48;2.50;99.90
36660;DHT22;22654;51.054;3.654;2023-01-23T02:24:23;2.20;99.90
36660;DHT22;22654;51.054;3.654;2023-01-23T02:26:51;2.10;99.90
36660;DHT22;22654;51.054;3.654;2023-01-23T02:29:17;2.20;99.90
36660;DHT22;22654;51.054;3.654;2023-01-23T02:31:53;2.40;99.90
36660;DHT22;22654;51.054;3.654;2023-01-23T02:34:21;2.60;99.90
36660;DHT22;22654;51.054;3.654;2023-01-23T02:36:49;2.80;99.90
36660;DHT22;22654;51.054;3.654;2023-01-23T02:39:17;2.90;99.90
36660;DHT22;22654;51.054;3.654;2023-01-23T02:41:48;3.00;99.90
36660;DHT22;22654;51.054;3.654;2023-01-23T02:44:17;3.00;99.90
36660;DHT22;22654;51.054;3.654;2023-01-23T02:46:49;3.10;99.90
36660;DHT22;22654;51.054;3.654;2023-01-23T02:49:15;3.10;99.90
36660;DHT22;22654;51.054;3.654;2023-01-23T02:51:41;3.10;99.90
36660;DHT22;22654;51.054;3.654;2023-01-23T02:54:07;3.00;99.90
36660;DHT22;22654;51.054;3.654;2023-01-23T02:56:33;2.90;99.90
36660;DHT22;22654;51.054;3.654;2023-01-23T02:58:59;2.90;99.90
36660;DHT22;22654;51.054;3.654;2023-01-23T03:01:43;3.00;99.90
36660;DHT22;22654;51.054;3.654;2023-01-23T03:04:09;3.00;99.90
36660;DHT22;22654;51.054;3.654;2023-01-23T03:06:35;2.90;99.90
36660;DHT22;22654;51.054;3.654;2023-01-23T03:09:03;3.00;99.90
36660;DHT22;22654;51.054;3.654;2023-01-23T03:11:30;3.00;99.90
36660;DHT22;22654;51.054;3.654;2023-01-23T03:13:56;3.20;99.90
36660;DHT22;22654;51.054;3.654;2023-01-23T03:16:21;3.20;99.90
36660;DHT22;22654;51.054;3.654;2023-01-23T03:18:47;3.30;99.90
36660;DHT22;22654;51.054;3.654;2023-01-23T03:21:17;3.30;99.90
36660;DHT22;22654;51.054;3.654;2023-01-23T03:23:46;3.30;99.90
36660;DHT22;22654;51.054;3.654;2023-01-23T03:26:12;3.20;99.90
36660;DHT22;22654;51.054;3.654;2023-01-23T03:28:42;3.00;99.90
36660;DHT22;22654;51.054;3.654;2023-01-23T03:31:26;2.70;99.90
36660;DHT22;22654;51.054;3.654;2023-01-23T03:33:53;2.50;99.90
36660;DHT22;22654;51.054;3.654;2023-01-23T03:36:19;2.40;99.90
36660;DHT22;22654;51.054;3.654;2023-01-23T03:38:45;2.30;99.90
36660;DHT22;22654;51.054;3.654;2023-01-23T03:41:30;2.30;99.90
36660;DHT22;22654;51.054;3.654;2023-01-23T03:44:01;2.20;99.90
36660;DHT22;22654;51.054;3.654;2023-01-23T03:46:26;2.10;99.90
36660;DHT22;22654;51.054;3.654;2023-01-23T03:48:52;2.10;99.90
36660;DHT22;22654;51.054;3.654;2023-01-23T03:51:18;2.20;99.90
36660;DHT22;22654;51.054;3.654;2023-01-23T03:53:44;2.20;99.90
36660;DHT22;22654;51.054;3.654;2023-01-23T03:56:10;2.30;99.90
36660;DHT22;22654;51.054;3.654;2023-01-23T03:58:36;2.30;99.90
36660;DHT22;22654;51.054;3.654;2023-01-23T04:01:05;2.20;99.90
36660;DHT22;22654;51.054;3.654;2023-01-23T04:03:35;2.20;99.90
36660;DHT22;22654;51.054;3.654;2023-01-23T04:06:01;2.30;99.90
36660;DHT22;22654;51.054;3.654;2023-01-23T04:08:29;2.40;99.90
36660;DHT22;22654;51.054;3.654;2023-01-23T04:11:14;2.30;99.90
36660;DHT22;22654;51.054;3.654;2023-01-23T04:13:40;2.30;99.90
36660;DHT22;22654;51.054;3.654;2023-01-23T04:16:07;2.30;99.90
36660;DHT22;22654;51.054;3.654;2023-01-23T04:18:34;2.20;99.90
36660;DHT22;22654;51.054;3.654;2023-01-23T04:21:00;2.30;99.90
36660;DHT22;22654;51.054;3.654;2023-01-23T04:23:25;2.30;99.90
36660;DHT22;22654;51.054;3.654;2023-01-23T04:25:52;2.30;99.90
36660;DHT22;22654;51.054;3.654;2023-01-23T04:28:18;2.20;99.90
36660;DHT22;22654;51.054;3.654;2023-01-23T04:30:47;2.30;99.90
36660;DHT22;22654;51.054;3.654;2023-01-23T04:33:19;2.20;99.90
36660;DHT22;22654;51.054;3.654;2023-01-23T04:35:50;2.20;99.90
36660;DHT22;22654;51.054;3.654;2023-01-23T04:38:16;2.20;99.90
36660;DHT22;22654;51.054;3.654;2023-01-23T04:40:41;2.10;99.90
36660;DHT22;22654;51.054;3.654;2023-01-23T04:43:08;2.10;99.90
36660;DHT22;22654;51.054;3.654;2023-01-23T04:45:39;2.10;99.90
36660;DHT22;22654;51.054;3.654;2023-01-23T04:48:27;2.10;99.90
36660;DHT22;22654;51.054;3.654;2023-01-23T04:50:53;2.20;99.90
36660;DHT22;22654;51.054;3.654;2023-01-23T04:53:18;2.10;99.90
36660;DHT22;22654;51.054;3.654;2023-01-23T04:55:47;2.20;99.90
36660;DHT22;22654;51.054;3.654;2023-01-23T04:58:15;2.20;99.90
36660;DHT22;22654;51.054;3.654;2023-01-23T05:00:43;2.20;99.90
36660;DHT22;22654;51.054;3.654;2023-01-23T05:03:09;2.10;99.90
36660;DHT22;22654;51.054;3.654;2023-01-23T05:05:40;2.00;99.90
36660;DHT22;22654;51.054;3.654;2023-01-23T05:08:08;2.00;99.90
36660;DHT22;22654;51.054;3.654;2023-01-23T05:10:34;2.00;99.90
36660;DHT22;22654;51.054;3.654;2023-01-23T05:13:04;2.00;99.90
36660;DHT22;22654;51.054;3.654;2023-01-23T05:15:30;2.10;99.90
36660;DHT22;22654;51.054;3.654;2023-01-23T05:17:56;2.20;99.90
36660;DHT22;22654;51.054;3.654;2023-01-23T05:20:23;2.20;99.90
36660;DHT22;22654;51.054;3.654;2023-01-23T05:22:49;2.20;99.90
36660;DHT22;22654;51.054;3.654;2023-01-23T05:25:20;2.20;99.90
36660;DHT22;22654;51.054;3.654;2023-01-23T05:27:46;2.20;99.90
36660;DHT22;22654;51.054;3.654;2023-01-23T05:30:12;2.20;99.90
36660;DHT22;22654;51.054;3.654;2023-01-23T05:32:38;2.20;99.90
36660;DHT22;22654;51.054;3.654;2023-01-23T05:35:13;2.20;99.90
36660;DHT22;22654;51.054;3.654;2023-01-23T05:37:41;2.30;99.90
36660;DHT22;22654;51.054;3.654;2023-01-23T05:40:07;2.40;99.90
36660;DHT22;22654;51.054;3.654;2023-01-23T05:43:10;2.50;99.90
36660;DHT22;22654;51.054;3.654;2023-01-23T05:45:58;2.60;99.90
36660;DHT22;22654;51.054;3.654;2023-01-23T05:48:38;2.50;99.90
36660;DHT22;22654;51.054;3.654;2023-01-23T05:51:08;2.50;99.90
36660;DHT22;22654;51.054;3.654;2023-01-23T05:53:34;2.50;99.90
36660;DHT22;22654;51.054;3.654;2023-01-23T05:56:03;2.60;99.90
36660;DHT22;22654;51.054;3.654;2023-01-23T05:58:32;2.70;99.90
36660;DHT22;22654;51.054;3.654;2023-01-23T06:01:20;2.80;99.90
36660;DHT22;22654;51.054;3.654;2023-01-23T06:04:04;2.70;99.90
36660;DHT22;22654;51.054;3.654;2023-01-23T06:06:42;2.60;99.90
36660;DHT22;22654;51.054;3.654;2023-01-23T06:09:08;2.50;99.90
36660;DHT22;22654;51.054;3.654;2023-01-23T06:11:33;2.50;99.90
36660;DHT22;22654;51.054;3.654;2023-01-23T06:13:59;2.50;99.90
36660;DHT22;22654;51.054;3.654;2023-01-23T06:16:25;2.50;99.90
36660;DHT22;22654;51.054;3.654;2023-01-23T06:18:51;2.50;99.90
36660;DHT22;22654;51.054;3.654;2023-01-23T06:21:17;2.60;99.90
36660;DHT22;22654;51.054;3.654;2023-01-23T06:23:44;2.60;99.90
36660;DHT22;22654;51.054;3.654;2023-01-23T06:26:10;2.80;99.90
36660;DHT22;22654;51.054;3.654;2023-01-23T06:28:37;2.80;99.90
36660;DHT22;22654;51.054;3.654;2023-01-23T06:31:04;3.00;99.90
36660;DHT22;22654;51.054;3.654;2023-01-23T06:33:47;2.90;99.90
36660;DHT22;22654;51.054;3.654;2023-01-23T06:36:13;2.40;99.90
36660;DHT22;22654;51.054;3.654;2023-01-23T06:38:39;2.70;99.90
36660;DHT22;22654;51.054;3.654;2023-01-23T06:41:08;2.70;99.90
36660;DHT22;22654;51.054;3.654;2023-01-23T06:43:36;2.70;99.90
36660;DHT22;22654;51.054;3.654;2023-01-23T06:46:06;2.70;99.90
36660;DHT22;22654;51.054;3.654;2023-01-23T06:48:32;2.80;99.90
36660;DHT22;22654;51.054;3.654;2023-01-23T06:50:58;2.80;99.90
36660;DHT22;22654;51.054;3.654;2023-01-23T06:53:25;2.90;99.90
36660;DHT22;22654;51.054;3.654;2023-01-23T06:55:52;2.90;99.90
36660;DHT22;22654;51.054;3.654;2023-01-23T06:58:18;3.00;99.90
36660;DHT22;22654;51.054;3.654;2023-01-23T07:00:44;3.00;99.90
36660;DHT22;22654;51.054;3.654;2023-01-23T07:03:25;3.10;99.90
36660;DHT22;22654;51.054;3.654;2023-01-23T07:05:51;3.10;99.90
36660;DHT22;22654;51.054;3.654;2023-01-23T07:08:17;3.10;99.90
36660;DHT22;22654;51.054;3.654;2023-01-23T07:10:44;3.00;99.90
36660;DHT22;22654;51.054;3.654;2023-01-23T07:13:10;3.00;99.90
36660;DHT22;22654;51.054;3.654;2023-01-23T07:15:36;3.00;99.90
36660;DHT22;22654;51.054;3.654;2023-01-23T07:18:03;3.00;99.90
36660;DHT22;22654;51.054;3.654;2023-01-23T07:20:29;3.10;99.90
36660;DHT22;22654;51.054;3.654;2023-01-23T07:22:58;3.10;99.90
36660;DHT22;22654;51.054;3.654;2023-01-23T07:25:24;3.20;99.90
36660;DHT22;22654;51.054;3.654;2023-01-23T07:27:49;3.10;99.90
36660;DHT22;22654;51.054;3.654;2023-01-23T07:30:15;3.00;99.90
36660;DHT22;22654;51.054;3.654;2023-01-23T07:32:41;2.90;99.90
36660;DHT22;22654;51.054;3.654;2023-01-23T07:35:07;2.90;99.90
36660;DHT22;22654;51.054;3.654;2023-01-23T07:37:33;2.90;99.90
36660;DHT22;22654;51.054;3.654;2023-01-23T07:39:59;2.80;99.90
36660;DHT22;22654;51.054;3.654;2023-01-23T07:42:24;2.80;99.90
36660;DHT22;22654;51.054;3.654;2023-01-23T07:44:50;2.90;99.90
36660;DHT22;22654;51.054;3.654;2023-01-23T07:47:16;2.90;99.90
36660;DHT22;22654;51.054;3.654;2023-01-23T07:49:43;2.90;99.90
36660;DHT22;22654;51.054;3.654;2023-01-23T07:52:08;2.90;99.90
36660;DHT22;22654;51.054;3.654;2023-01-23T07:54:34;2.90;99.90
36660;DHT22;22654;51.054;3.654;2023-01-23T07:57:00;2.90;99.90
36660;DHT22;22654;51.054;3.654;2023-01-23T07:59:25;2.90;99.90
36660;DHT22;22654;51.054;3.654;2023-01-23T08:01:51;2.80;99.90
36660;DHT22;22654;51.054;3.654;2023-01-23T08:04:20;2.90;99.90
36660;DHT22;22654;51.054;3.654;2023-01-23T08:06:46;3.00;99.90
36660;DHT22;22654;51.054;3.654;2023-01-23T08:09:11;3.10;99.90
36660;DHT22;22654;51.054;3.654;2023-01-23T08:11:37;3.10;99.90
36660;DHT22;22654;51.054;3.654;2023-01-23T08:14:03;3.20;99.90
36660;DHT22;22654;51.054;3.654;2023-01-23T08:16:29;3.20;99.90
36660;DHT22;22654;51.054;3.654;2023-01-23T08:18:55;3.10;99.90
36660;DHT22;22654;51.054;3.654;2023-01-23T08:21:20;3.20;99.90
36660;DHT22;22654;51.054;3.654;2023-01-23T08:23:46;3.20;99.90
36660;DHT22;22654;51.054;3.654;2023-01-23T08:26:13;3.30;99.90
36660;DHT22;22654;51.054;3.654;2023-01-23T08:28:40;3.30;99.90
36660;DHT22;22654;51.054;3.654;2023-01-23T08:31:06;3.30;99.90
36660;DHT22;22654;51.054;3.654;2023-01-23T08:33:32;3.30;99.90
36660;DHT22;22654;51.054;3.654;2023-01-23T08:35:58;3.30;99.90
36660;DHT22;22654;51.054;3.654;2023-01-23T08:38:24;3.30;99.90
36660;DHT22;22654;51.054;3.654;2023-01-23T08:40:51;3.20;99.90
36660;DHT22;22654;51.054;3.654;2023-01-23T08:43:17;3.10;99.90
36660;DHT22;22654;51.054;3.654;2023-01-23T08:45:47;3.20;99.90
36660;DHT22;22654;51.054;3.654;2023-01-23T08:48:13;3.20;99.90
36660;DHT22;22654;51.054;3.654;2023-01-23T08:50:39;3.30;99.90
36660;DHT22;22654;51.054;3.654;2023-01-23T08:53:05;3.30;99.90
36660;DHT22;22654;51.054;3.654;2023-01-23T08:55:31;3.30;99.90
36660;DHT22;22654;51.054;3.654;2023-01-23T08:57:57;3.40;99.90
36660;DHT22;22654;51.054;3.654;2023-01-23T09:00:24;3.50;99.90
36660;DHT22;22654;51.054;3.654;2023-01-23T09:02:50;3.60;99.90
36660;DHT22;22654;51.054;3.654;2023-01-23T09:05:16;3.60;99.90
36660;DHT22;22654;51.054;3.654;2023-01-23T09:07:42;3.50;99.90
36660;DHT22;22654;51.054;3.654;2023-01-23T09:10:08;3.30;99.90
36660;DHT22;22654;51.054;3.654;2023-01-23T09:12:34;3.30;99.90
36660;DHT22;22654;51.054;3.654;2023-01-23T09:15:00;3.40;99.90
36660;DHT22;22654;51.054;3.654;2023-01-23T09:17:26;3.50;99.90
36660;DHT22;22654;51.054;3.654;2023-01-23T09:19:52;3.50;99.90
36660;DHT22;22654;51.054;3.654;2023-01-23T09:22:18;3.30;99.90
36660;DHT22;22654;51.054;3.654;2023-01-23T09:24:43;3.30;99.90
36660;DHT22;22654;51.054;3.654;2023-01-23T09:27:10;3.30;99.90
36660;DHT22;22654;51.054;3.654;2023-01-23T09:29:35;3.40;99.90
36660;DHT22;22654;51.054;3.654;2023-01-23T09:32:01;3.70;99.90
36660;DHT22;22654;51.054;3.654;2023-01-23T09:34:27;3.80;99.90
36660;DHT22;22654;51.054;3.654;2023-01-23T09:36:53;3.80;99.90
36660;DHT22;22654;51.054;3.654;2023-01-23T09:39:19;3.80;99.90
36660;DHT22;22654;51.054;3.654;2023-01-23T09:41:45;3.60;99.90
36660;DHT22;22654;51.054;3.654;2023-01-23T09:44:17;3.50;99.90
36660;DHT22;22654;51.054;3.654;2023-01-23T09:46:52;3.70;99.90
36660;DHT22;22654;51.054;3.654;2023-01-23T09:54:42;4.00;99.90
36660;DHT22;22654;51.054;3.654;2023-01-23T09:57:13;4.00;99.90
36660;DHT22;22654;51.054;3.654;2023-01-23T09:59:40;3.90;99.90
36660;DHT22;22654;51.054;3.654;2023-01-23T10:02:14;3.90;99.90
36660;DHT22;22654;51.054;3.654;2023-01-23T10:04:41;3.80;99.90
36660;DHT22;22654;51.054;3.654;2023-01-23T10:09:57;3.90;99.90
36660;DHT22;22654;51.054;3.654;2023-01-23T10:22:55;3.90;99.90
36660;DHT22;22654;51.054;3.654;2023-01-23T10:25:26;4.00;99.90
36660;DHT22;22654;51.054;3.654;2023-01-23T10:27:54;4.10;99.90
36660;DHT22;22654;51.054;3.654;2023-01-23T10:30:28;4.10;99.90
36660;DHT22;22654;51.054;3.654;2023-01-23T10:35:26;4.00;99.90
36660;DHT22;22654;51.054;3.654;2023-01-23T10:37:58;4.10;99.90
36660;DHT22;22654;51.054;3.654;2023-01-23T10:40:25;4.20;99.90
36660;DHT22;22654;51.054;3.654;2023-01-23T10:43:14;4.30;99.90
36660;DHT22;22654;51.054;3.654;2023-01-23T10:45:40;4.30;99.90
36660;DHT22;22654;51.054;3.654;2023-01-23T10:48:52;4.30;99.90
36660;DHT22;22654;51.054;3.654;2023-01-23T10:50:52;4.20;99.90
36660;DHT22;22654;51.054;3.654;2023-01-23T10:53:19;4.30;99.90
36660;DHT22;22654;51.054;3.654;2023-01-23T10:55:45;4.40;99.90
36660;DHT22;22654;51.054;3.654;2023-01-23T11:00:52;4.50;99.90
36660;DHT22;22654;51.054;3.654;2023-01-23T11:05:50;4.50;99.90
36660;DHT22;22654;51.054;3.654;2023-01-23T11:08:29;4.50;99.90
36660;DHT22;22654;51.054;3.654;2023-01-23T11:13:40;4.50;99.90
36660;DHT22;22654;51.054;3.654;2023-01-23T11:16:07;4.70;99.90
36660;DHT22;22654;51.054;3.654;2023-01-23T11:18:38;5.00;99.90
36660;DHT22;22654;51.054;3.654;2023-01-23T11:21:16;5.00;99.90
36660;DHT22;22654;51.054;3.654;2023-01-23T11:23:44;5.20;99.90
36660;DHT22;22654;51.054;3.654;2023-01-23T11:26:09;5.20;99.90
36660;DHT22;22654;51.054;3.654;2023-01-23T11:28:55;5.20;99.90
36660;DHT22;22654;51.054;3.654;2023-01-23T11:31:21;5.10;99.90
36660;DHT22;22654;51.054;3.654;2023-01-23T11:33:51;5.10;99.90
36660;DHT22;22654;51.054;3.654;2023-01-23T11:38:49;4.80;99.90
36660;DHT22;22654;51.054;3.654;2023-01-23T11:41:16;4.80;99.90
36660;DHT22;22654;51.054;3.654;2023-01-23T11:43:42;4.70;99.90
36660;DHT22;22654;51.054;3.654;2023-01-23T11:46:51;4.50;99.90
36660;DHT22;22654;51.054;3.654;2023-01-23T11:51:30;4.60;99.90
36660;DHT22;22654;51.054;3.654;2023-01-23T11:59:33;4.70;99.90
36660;DHT22;22654;51.054;3.654;2023-01-23T12:07:07;5.40;99.90
36660;DHT22;22654;51.054;3.654;2023-01-23T12:09:55;5.60;99.90
36660;DHT22;22654;51.054;3.654;2023-01-23T12:15:02;5.30;99.90
36660;DHT22;22654;51.054;3.654;2023-01-23T12:22:29;4.90;99.90
36660;DHT22;22654;51.054;3.654;2023-01-23T12:25:13;4.80;99.90
36660;DHT22;22654;51.054;3.654;2023-01-23T12:27:42;4.90;99.90
36660;DHT22;22654;51.054;3.654;2023-01-23T12:30:15;5.00;99.90
36660;DHT22;22654;51.054;3.654;2023-01-23T12:35:17;5.00;99.90
36660;DHT22;22654;51.054;3.654;2023-01-23T12:40:12;4.70;99.90
36660;DHT22;22654;51.054;3.654;2023-01-23T12:42:47;4.70;99.90
36660;DHT22;22654;51.054;3.654;2023-01-23T12:45:17;5.00;99.90
36660;DHT22;22654;51.054;3.654;2023-01-23T12:50:34;5.10;99.90
36660;DHT22;22654;51.054;3.654;2023-01-23T12:53:11;5.30;99.90
36660;DHT22;22654;51.054;3.654;2023-01-23T12:58:14;5.00;99.90
36660;DHT22;22654;51.054;3.654;2023-01-23T13:08:24;5.00;99.90
36660;DHT22;22654;51.054;3.654;2023-01-23T13:11:08;5.10;99.90
36660;DHT22;22654;51.054;3.654;2023-01-23T13:13:53;5.20;99.90
36660;DHT22;22654;51.054;3.654;2023-01-23T13:16:19;5.30;99.90
36660;DHT22;22654;51.054;3.654;2023-01-23T13:18:52;5.20;99.90
36660;DHT22;22654;51.054;3.654;2023-01-23T13:21:37;5.20;99.90
36660;DHT22;22654;51.054;3.654;2023-01-23T13:24:31;5.30;99.90
36660;DHT22;22654;51.054;3.654;2023-01-23T13:32:46;5.30;99.90
36660;DHT22;22654;51.054;3.654;2023-01-23T13:37:57;5.30;99.90
36660;DHT22;22654;51.054;3.654;2023-01-23T13:40:23;5.30;99.90
36660;DHT22;22654;51.054;3.654;2023-01-23T13:42:48;5.20;99.90
36660;DHT22;22654;51.054;3.654;2023-01-23T13:50:39;5.40;99.90
36660;DHT22;22654;51.054;3.654;2023-01-23T13:53:12;5.30;99.90
36660;DHT22;22654;51.054;3.654;2023-01-23T13:55:57;5.40;99.90
36660;DHT22;22654;51.054;3.654;2023-01-23T13:58:41;5.20;99.90
36660;DHT22;22654;51.054;3.654;2023-01-23T14:03:53;5.00;99.90
36660;DHT22;22654;51.054;3.654;2023-01-23T14:06:38;5.20;99.90
36660;DHT22;22654;51.054;3.654;2023-01-23T14:09:21;5.30;99.90
36660;DHT22;22654;51.054;3.654;2023-01-23T14:11:54;5.20;99.90
36660;DHT22;22654;51.054;3.654;2023-01-23T14:14:20;5.20;99.90
36660;DHT22;22654;51.054;3.654;2023-01-23T14:17:04;5.00;99.90
36660;DHT22;22654;51.054;3.654;2023-01-23T14:19:31;4.90;99.90
36660;DHT22;22654;51.054;3.654;2023-01-23T14:21:57;4.90;99.90
36660;DHT22;22654;51.054;3.654;2023-01-23T14:24:27;5.00;99.90
36660;DHT22;22654;51.054;3.654;2023-01-23T14:27:01;5.10;99.90
36660;DHT22;22654;51.054;3.654;2023-01-23T14:29:31;5.10;99.90
36660;DHT22;22654;51.054;3.654;2023-01-23T14:31:57;4.90;99.90
36660;DHT22;22654;51.054;3.654;2023-01-23T14:34:23;4.60;99.90
36660;DHT22;22654;51.054;3.654;2023-01-23T14:37:02;4.50;99.90
36660;DHT22;22654;51.054;3.654;2023-01-23T14:39:29;4.40;99.90
36660;DHT22;22654;51.054;3.654;2023-01-23T14:41:56;4.40;99.90
36660;DHT22;22654;51.054;3.654;2023-01-23T14:44:24;4.50;99.90
36660;DHT22;22654;51.054;3.654;2023-01-23T14:46:52;4.50;99.90
36660;DHT22;22654;51.054;3.654;2023-01-23T14:49:21;4.50;99.90
36660;DHT22;22654;51.054;3.654;2023-01-23T14:51:58;4.40;99.90
36660;DHT22;22654;51.054;3.654;2023-01-23T14:54:25;4.20;99.90
36660;DHT22;22654;51.054;3.654;2023-01-23T14:56:51;4.20;99.90
36660;DHT22;22654;51.054;3.654;2023-01-23T15:01:53;4.40;99.90
36660;DHT22;22654;51.054;3.654;2023-01-23T15:04:20;4.30;99.90
36660;DHT22;22654;51.054;3.654;2023-01-23T15:06:49;4.30;99.90
36660;DHT22;22654;51.054;3.654;2023-01-23T15:09:15;4.40;99.90
36660;DHT22;22654;51.054;3.654;2023-01-23T15:11:42;4.40;99.90
36660;DHT22;22654;51.054;3.654;2023-01-23T15:14:24;4.40;99.90
36660;DHT22;22654;51.054;3.654;2023-01-23T15:16:57;4.30;99.90
36660;DHT22;22654;51.054;3.654;2023-01-23T15:19:23;4.20;99.90
36660;DHT22;22654;51.054;3.654;2023-01-23T15:21:50;4.20;99.90
36660;DHT22;22654;51.054;3.654;2023-01-23T15:24:28;4.30;99.90
36660;DHT22;22654;51.054;3.654;2023-01-23T15:29:20;4.30;99.90
36660;DHT22;22654;51.054;3.654;2023-01-23T15:31:49;4.30;99.90
36660;DHT22;22654;51.054;3.654;2023-01-23T15:36:45;4.30;99.90
36660;DHT22;22654;51.054;3.654;2023-01-23T15:42:01;4.40;99.90
36660;DHT22;22654;51.054;3.654;2023-01-23T15:44:28;4.40;99.90
36660;DHT22;22654;51.054;3.654;2023-01-23T15:46:55;4.50;99.90
36660;DHT22;22654;51.054;3.654;2023-01-23T15:49:21;4.50;99.90
36660;DHT22;22654;51.054;3.654;2023-01-23T15:51:47;4.40;99.90
36660;DHT22;22654;51.054;3.654;2023-01-23T15:54:18;4.30;99.90
36660;DHT22;22654;51.054;3.654;2023-01-23T15:56:44;4.30;99.90
36660;DHT22;22654;51.054;3.654;2023-01-23T15:59:12;4.30;99.90
36660;DHT22;22654;51.054;3.654;2023-01-23T16:01:38;4.30;99.90
36660;DHT22;22654;51.054;3.654;2023-01-23T16:04:04;4.30;99.90
36660;DHT22;22654;51.054;3.654;2023-01-23T16:06:29;4.30;99.90
36660;DHT22;22654;51.054;3.654;2023-01-23T16:08:55;4.30;99.90
36660;DHT22;22654;51.054;3.654;2023-01-23T16:11:21;4.30;99.90
36660;DHT22;22654;51.054;3.654;2023-01-23T16:13:47;4.30;99.90
36660;DHT22;22654;51.054;3.654;2023-01-23T16:16:13;4.30;99.90
36660;DHT22;22654;51.054;3.654;2023-01-23T16:18:39;4.30;99.90
36660;DHT22;22654;51.054;3.654;2023-01-23T16:21:05;4.30;99.90
36660;DHT22;22654;51.054;3.654;2023-01-23T16:23:31;4.30;99.90
36660;DHT22;22654;51.054;3.654;2023-01-23T16:25:58;4.30;99.90
36660;DHT22;22654;51.054;3.654;2023-01-23T16:28:25;4.20;99.90
36660;DHT22;22654;51.054;3.654;2023-01-23T16:30:51;4.20;99.90
36660;DHT22;22654;51.054;3.654;2023-01-23T16:33:17;4.30;99.90
36660;DHT22;22654;51.054;3.654;2023-01-23T16:35:43;4.30;99.90
36660;DHT22;22654;51.054;3.654;2023-01-23T16:38:22;4.30;99.90
36660;DHT22;22654;51.054;3.654;2023-01-23T16:40:48;4.40;99.90
36660;DHT22;22654;51.054;3.654;2023-01-23T16:43:16;4.50;99.90
36660;DHT22;22654;51.054;3.654;2023-01-23T16:45:41;4.60;99.90
36660;DHT22;22654;51.054;3.654;2023-01-23T16:48:07;4.60;99.90
36660;DHT22;22654;51.054;3.654;2023-01-23T16:50:38;4.70;99.90
36660;DHT22;22654;51.054;3.654;2023-01-23T16:53:06;4.70;99.90
36660;DHT22;22654;51.054;3.654;2023-01-23T16:55:33;4.70;99.90
36660;DHT22;22654;51.054;3.654;2023-01-23T16:57:59;4.60;99.90
36660;DHT22;22654;51.054;3.654;2023-01-23T17:00:26;4.40;99.90
36660;DHT22;22654;51.054;3.654;2023-01-23T17:02:53;4.50;99.90
36660;DHT22;22654;51.054;3.654;2023-01-23T17:05:20;4.50;99.90
36660;DHT22;22654;51.054;3.654;2023-01-23T17:07:46;4.50;99.90
36660;DHT22;22654;51.054;3.654;2023-01-23T17:10:19;4.40;99.90
36660;DHT22;22654;51.054;3.654;2023-01-23T17:12:49;4.40;99.90
36660;DHT22;22654;51.054;3.654;2023-01-23T17:15:17;4.30;99.90
36660;DHT22;22654;51.054;3.654;2023-01-23T17:17:44;4.40;99.90
36660;DHT22;22654;51.054;3.654;2023-01-23T17:20:12;4.40;99.90
36660;DHT22;22654;51.054;3.654;2023-01-23T17:22:39;4.40;99.90
36660;DHT22;22654;51.054;3.654;2023-01-23T17:25:16;4.50;99.90
36660;DHT22;22654;51.054;3.654;2023-01-23T17:27:42;4.50;99.90
36660;DHT22;22654;51.054;3.654;2023-01-23T17:30:19;4.50;99.90
36660;DHT22;22654;51.054;3.654;2023-01-23T17:32:47;4.60;99.90
36660;DHT22;22654;51.054;3.654;2023-01-23T17:35:27;4.50;99.90